Time;durP1;ratioP1;P1;durP2;ratioP2;P2;SDS_P1;SDS_P2;PMS_P1;PMS_P2;Temp;Humidity;BMP_temperature;BMP_pressure;BME280_temperature;BME280_humidity;BME280_pressure;Samples;Min_cycle;Max_cycle;Signal;HPM_P1;HPM_P2
2021/08/22 00:00:20;;;;;;;3.53;2.55;;;;;;;24.73;55.55;100425.03;4957517;28;20027;-80
2021/08/22 00:02:46;;;;;;;5.95;3.65;;;;;;;24.74;55.25;100411.59;4958023;28;20064;-79
2021/08/22 00:05:11;;;;;;;4.18;2.38;;;;;;;24.78;55.03;100418.78;4957228;28;20461;-79
2021/08/22 00:07:37;;;;;;;3.55;3.28;;;;;;;24.74;54.87;100417.28;4957292;28;20033;-78
2021/08/22 00:10:04;;;;;;;3.40;2.88;;;;;;;24.68;54.86;100413.41;4957372;28;20069;-79
2021/08/22 00:12:30;;;;;;;3.33;2.70;;;;;;;24.65;55.20;100414.31;4974936;28;20034;-79
2021/08/22 00:14:58;;;;;;;4.65;3.25;;;;;;;24.61;55.20;100413.63;4957282;28;20046;-79
2021/08/22 00:17:24;;;;;;;2.95;2.53;;;;;;;24.52;55.13;100411.47;4956829;28;20482;-79
2021/08/22 00:19:49;;;;;;;4.40;2.47;;;;;;;24.54;55.48;100411.81;4957334;28;20023;-79
2021/08/22 00:22:15;;;;;;;6.78;2.80;;;;;;;24.51;55.53;100416.38;4960476;28;20394;-78
2021/08/22 00:24:41;;;;;;;5.15;2.88;;;;;;;24.53;55.36;100413.06;4960836;28;20109;-79
2021/08/22 00:27:07;;;;;;;2.88;2.60;;;;;;;24.50;55.15;100411.13;4960835;28;20038;-79
2021/08/22 00:29:32;;;;;;;2.97;2.47;;;;;;;24.48;55.55;100417.25;4960894;28;20030;-79
2021/08/22 00:31:58;;;;;;;4.03;2.97;;;;;;;24.49;55.91;100418.84;4960896;28;20035;-79
2021/08/22 00:34:23;;;;;;;3.95;2.70;;;;;;;24.50;55.95;100420.47;4960672;28;20035;-79
2021/08/22 00:36:49;;;;;;;2.75;2.55;;;;;;;24.48;56.20;100410.78;4960891;28;20058;-79
2021/08/22 00:39:15;;;;;;;5.97;3.08;;;;;;;24.42;56.13;100410.53;4960877;28;20031;-79
2021/08/22 00:41:41;;;;;;;3.30;3.00;;;;;;;24.35;56.35;100419.31;4961619;28;20173;-79
2021/08/22 00:44:07;;;;;;;3.22;2.65;;;;;;;24.36;56.75;100420.91;4961172;28;20031;-79
2021/08/22 00:46:35;;;;;;;3.45;3.13;;;;;;;24.37;56.62;100416.00;4961744;28;20049;-79
2021/08/22 00:49:02;;;;;;;3.85;2.95;;;;;;;24.31;56.84;100413.69;4961257;28;20022;-79
2021/08/22 00:51:28;;;;;;;4.13;3.03;;;;;;;24.32;56.93;100411.63;4960934;28;20034;-79
2021/08/22 00:53:54;;;;;;;6.20;3.10;;;;;;;24.37;57.00;100405.41;4961009;28;20077;-79
2021/08/22 00:56:19;;;;;;;3.28;2.75;;;;;;;24.27;57.44;100412.19;4961273;28;20030;-78
2021/08/22 00:58:46;;;;;;;4.97;3.15;;;;;;;24.36;57.00;100403.84;4960749;28;20442;-78
2021/08/22 01:01:17;;;;;;;4.63;3.17;;;;;;;24.31;57.43;100412.88;4960624;28;20109;-78
2021/08/22 01:04:11;;;;;;;2.72;2.53;;;;;;;24.15;58.21;100410.13;4960940;28;20042;-79
2021/08/22 01:06:55;;;;;;;3.25;2.95;;;;;;;24.20;58.62;100409.56;4961829;28;20098;-79
2021/08/22 01:09:40;;;;;;;4.63;2.80;;;;;;;23.98;58.86;100413.03;4960854;28;20034;-79
2021/08/22 01:12:25;;;;;;;5.30;4.45;;;;;;;23.97;59.42;100404.94;4961414;28;20385;-79
2021/08/22 01:14:56;;;;;;;44.05;32.60;;;;;;;23.89;59.79;100404.34;4960606;28;20027;-81
2021/08/22 01:17:26;;;;;;;74.78;55.25;;;;;;;23.90;59.71;100403.09;4960771;28;20054;-79
2021/08/22 01:20:04;;;;;;;63.53;46.70;;;;;;;23.87;59.87;100400.38;4960553;28;20061;-78
2021/08/22 01:22:33;;;;;;;43.40;36.97;;;;;;;23.79;59.97;100394.09;4978480;28;20034;-78
2021/08/22 01:25:01;;;;;;;40.88;34.28;;;;;;;23.81;60.14;100400.13;4960659;28;20031;-78
2021/08/22 01:27:27;;;;;;;49.38;42.95;;;;;;;23.91;60.32;100401.06;4945020;28;20034;-78
2021/08/22 01:30:23;;;;;;;49.03;42.63;;;;;;;23.86;60.01;100405.25;4960759;28;20386;-79
2021/08/22 01:32:51;;;;;;;53.22;47.72;;;;;;;23.83;59.90;100400.47;4944152;28;20513;-78
2021/08/22 01:35:20;;;;;;;29.95;27.05;;;;;;;23.86;59.77;100396.72;4960695;28;20026;-79
2021/08/22 01:37:47;;;;;;;13.55;12.15;;;;;;;23.84;59.48;100399.22;4961380;28;20369;-80
2021/08/22 01:40:17;;;;;;;10.65;9.63;;;;;;;23.75;59.54;100393.38;4967383;28;20031;-79
2021/08/22 01:42:44;;;;;;;9.52;8.63;;;;;;;23.75;59.26;100390.53;4960548;28;20035;-79
2021/08/22 01:45:14;;;;;;;8.93;6.25;;;;;;;23.82;59.19;100392.41;4960104;28;20023;-79
2021/08/22 01:47:41;;;;;;;5.53;4.63;;;;;;;23.77;58.95;100394.53;4959687;28;20087;-79
2021/08/22 01:50:11;;;;;;;6.00;4.18;;;;;;;23.76;59.26;100392.16;4960347;28;20031;-79
2021/08/22 01:52:37;;;;;;;5.93;4.45;;;;;;;23.70;58.88;100391.09;4960405;28;20387;-80
2021/08/22 01:55:08;;;;;;;4.90;4.40;;;;;;;23.69;58.77;100395.19;4959375;28;20058;-79
2021/08/22 01:57:37;;;;;;;4.28;3.88;;;;;;;23.72;58.36;100388.63;4977196;28;20096;-79
2021/08/22 02:00:04;;;;;;;5.45;4.05;;;;;;;23.72;57.32;100389.41;4959429;28;20030;-79
2021/08/22 02:02:29;;;;;;;6.53;3.90;;;;;;;23.69;56.90;100392.34;4959311;28;20097;-79
2021/08/22 02:05:04;;;;;;;4.13;3.72;;;;;;;23.60;56.62;100375.94;4959607;28;20035;-79
2021/08/22 02:07:33;;;;;;;3.40;3.05;;;;;;;23.47;57.00;100387.22;4959501;28;20035;-79
2021/08/22 02:10:07;;;;;;;3.00;2.70;;;;;;;23.60;56.42;100384.44;4959483;28;20458;-79
2021/08/22 02:12:32;;;;;;;4.10;2.88;;;;;;;23.51;56.96;100372.94;4959122;28;20038;-79
2021/08/22 02:15:15;;;;;;;4.63;2.83;;;;;;;23.47;56.90;100381.53;4959248;28;20027;-79
2021/08/22 02:17:45;;;;;;;3.95;2.90;;;;;;;23.49;57.46;100376.22;4958925;28;20387;-79
2021/08/22 02:20:11;;;;;;;4.15;2.90;;;;;;;23.48;57.19;100373.81;4959249;28;20062;-79
2021/08/22 02:22:45;;;;;;;3.92;2.40;;;;;;;23.45;56.99;100369.84;4959366;28;20537;-79
2021/08/22 02:25:11;;;;;;;4.30;3.10;;;;;;;23.44;57.40;100378.81;4975934;28;20066;-79
2021/08/22 02:27:38;;;;;;;3.88;2.67;;;;;;;23.44;56.71;100368.25;4958766;28;20050;-79
2021/08/22 02:30:07;;;;;;;4.13;2.85;;;;;;;23.39;57.03;100373.66;4958799;28;20033;-79
2021/08/22 02:32:35;;;;;;;3.30;3.00;;;;;;;23.37;57.23;100376.13;4959467;28;20030;-78
2021/08/22 02:35:01;;;;;;;3.80;2.45;;;;;;;23.32;57.43;100368.97;4959115;28;20026;-79
2021/08/22 02:37:28;;;;;;;3.45;2.60;;;;;;;23.41;57.18;100368.34;4958668;28;20038;-79
2021/08/22 02:39:54;;;;;;;5.63;3.30;;;;;;;23.38;57.12;100367.16;4958784;28;20478;-79
2021/08/22 02:42:20;;;;;;;3.05;2.70;;;;;;;23.34;57.42;100366.50;4958396;28;20027;-79
2021/08/22 02:44:46;;;;;;;3.25;3.05;;;;;;;23.32;57.43;100363.28;4958246;28;20089;-78
2021/08/22 02:47:15;;;;;;;5.47;3.10;;;;;;;23.33;57.86;100369.75;4958571;28;20037;-79
2021/08/22 02:49:41;;;;;;;3.17;2.65;;;;;;;23.36;57.70;100364.00;4976281;28;20027;-79
2021/08/22 02:52:08;;;;;;;3.47;3.20;;;;;;;23.46;57.32;100371.44;4959122;28;20483;-78
2021/08/22 02:54:34;;;;;;;3.15;2.80;;;;;;;23.48;57.48;100374.59;4975322;28;20451;-79
2021/08/22 02:56:59;;;;;;;3.05;2.70;;;;;;;23.39;57.81;100365.94;4958655;28;20073;-78
2021/08/22 02:59:28;;;;;;;4.07;3.22;;;;;;;23.34;57.88;100360.00;4958094;28;20425;-79
2021/08/22 03:01:53;;;;;;;4.13;3.20;;;;;;;23.27;58.29;100370.28;4958120;28;20031;-79
2021/08/22 03:04:19;;;;;;;3.55;3.03;;;;;;;23.26;58.17;100365.06;4958030;28;20039;-79
2021/08/22 03:06:44;;;;;;;3.28;3.00;;;;;;;23.32;58.25;100363.28;4958113;28;20031;-79
2021/08/22 03:09:10;;;;;;;4.80;2.90;;;;;;;23.32;58.56;100354.75;4958445;28;20045;-79
2021/08/22 03:11:36;;;;;;;4.35;3.15;;;;;;;23.27;58.75;100364.63;4957810;28;20044;-79
2021/08/22 03:14:01;;;;;;;3.25;2.95;;;;;;;23.23;59.61;100357.47;4958394;28;20031;-79
2021/08/22 03:16:27;;;;;;;3.08;2.80;;;;;;;23.17;59.14;100356.38;4958047;28;20054;-79
2021/08/22 03:18:53;;;;;;;5.88;2.70;;;;;;;23.17;59.71;100364.91;4957766;28;20121;-79
2021/08/22 03:21:19;;;;;;;3.70;3.33;;;;;;;23.15;59.54;100367.38;4957784;28;20055;-79
2021/08/22 03:23:45;;;;;;;3.00;2.63;;;;;;;23.13;59.87;100358.53;4958234;28;20031;-79
2021/08/22 03:26:10;;;;;;;4.03;2.80;;;;;;;23.17;59.79;100362.06;4959231;28;20085;-78
2021/08/22 03:28:36;;;;;;;3.08;2.83;;;;;;;23.11;59.98;100361.00;4958428;28;20030;-79
2021/08/22 03:31:03;;;;;;;3.03;2.72;;;;;;;23.10;60.03;100359.41;4957851;28;20034;-79
2021/08/22 03:33:31;;;;;;;4.05;2.85;;;;;;;23.14;60.07;100360.91;4957645;28;20030;-79
2021/08/22 03:35:57;;;;;;;4.18;2.80;;;;;;;23.18;60.10;100363.69;4957596;28;20030;-79
2021/08/22 03:38:23;;;;;;;4.10;3.38;;;;;;;23.14;59.96;100362.97;4957917;28;20034;-79
2021/08/22 03:40:48;;;;;;;3.63;2.65;;;;;;;23.12;60.53;100362.63;4957503;28;20537;-79
2021/08/22 03:43:14;;;;;;;4.28;3.30;;;;;;;23.11;60.41;100366.69;4957853;28;20030;-79
2021/08/22 03:45:40;;;;;;;3.35;3.03;;;;;;;23.07;60.58;100360.31;4974628;28;20038;-79
2021/08/22 03:48:05;;;;;;;3.13;2.92;;;;;;;23.10;60.53;100368.72;4957251;28;20038;-79
2021/08/22 03:50:31;;;;;;;2.97;2.78;;;;;;;23.05;60.65;100368.47;4957476;28;20070;-79
2021/08/22 03:52:57;;;;;;;3.40;3.10;;;;;;;23.14;60.67;100371.47;4957339;28;20030;-79
2021/08/22 03:55:22;;;;;;;4.15;3.03;;;;;;;23.09;60.67;100369.16;4956944;28;20030;-78
2021/08/22 03:57:48;;;;;;;3.90;3.10;;;;;;;23.07;60.69;100366.78;4957309;28;20470;-79
2021/08/22 04:00:15;;;;;;;2.95;2.65;;;;;;;23.07;61.25;100371.66;4957943;28;20070;-79
2021/08/22 04:02:40;;;;;;;4.00;3.47;;;;;;;23.05;61.07;100372.09;4957687;28;20063;-79
2021/08/22 04:05:09;;;;;;;4.20;2.70;;;;;;;23.01;61.26;100374.25;4957915;28;20442;-79
2021/08/22 04:07:35;;;;;;;4.28;2.67;;;;;;;23.15;60.92;100373.84;4957678;28;20049;-79
2021/08/22 04:10:01;;;;;;;3.35;3.03;;;;;;;23.08;61.34;100370.41;4957348;28;20038;-79
2021/08/22 04:12:28;;;;;;;3.80;3.20;;;;;;;23.07;61.30;100369.63;4957271;28;20030;-79
2021/08/22 04:14:53;;;;;;;5.25;3.45;;;;;;;23.08;61.75;100373.25;4975024;28;20062;-79
2021/08/22 04:17:19;;;;;;;6.15;3.25;;;;;;;23.13;61.22;100375.56;4957104;28;20497;-79
2021/08/22 04:19:45;;;;;;;4.30;3.38;;;;;;;23.07;61.55;100374.50;4957164;28;20074;-79
2021/08/22 04:22:11;;;;;;;6.10;3.42;;;;;;;23.09;61.62;100378.47;4957019;28;20055;-79
2021/08/22 04:24:38;;;;;;;6.75;4.25;;;;;;;23.10;61.61;100382.91;4957159;28;20034;-79
2021/08/22 04:27:05;;;;;;;3.58;3.13;;;;;;;23.09;61.84;100383.38;4941422;28;20062;-79
2021/08/22 04:29:32;;;;;;;8.07;3.50;;;;;;;23.16;61.69;100388.84;4957008;28;20466;-79
2021/08/22 04:32:00;;;;;;;3.40;3.10;;;;;;;23.08;61.66;100396.75;4957599;28;20077;-79
2021/08/22 04:34:26;;;;;;;5.40;3.63;;;;;;;23.17;61.56;100393.28;4957468;28;20046;-79
2021/08/22 04:36:52;;;;;;;4.43;3.60;;;;;;;23.22;61.17;100406.94;4957224;28;20030;-79
2021/08/22 04:39:17;;;;;;;4.50;3.63;;;;;;;23.20;61.00;100398.88;4956591;28;20034;-79
2021/08/22 04:41:44;;;;;;;5.10;3.80;;;;;;;23.19;60.94;100405.78;4957687;28;20442;-78
2021/08/22 04:44:10;;;;;;;4.63;3.00;;;;;;;23.47;60.50;100412.78;4957404;28;20410;-78
2021/08/22 04:46:36;;;;;;;5.72;3.40;;;;;;;23.99;58.78;100406.09;4957284;28;20173;-78
2021/08/22 04:49:01;;;;;;;3.42;3.13;;;;;;;24.51;56.77;100407.03;4957282;28;20031;-78
2021/08/22 04:51:30;;;;;;;3.85;3.22;;;;;;;25.06;55.14;100408.53;4957879;28;20088;-78
2021/08/22 04:53:57;;;;;;;6.65;3.58;;;;;;;25.48;53.78;100413.25;4957355;28;20039;-79
2021/08/22 04:56:23;;;;;;;2.67;2.47;;;;;;;25.95;52.34;100418.91;4957514;28;20030;-79
2021/08/22 04:58:50;;;;;;;3.85;3.08;;;;;;;26.34;51.44;100419.47;4957382;28;20498;-79
2021/08/22 05:01:16;;;;;;;3.63;3.10;;;;;;;26.75;50.05;100424.00;4975135;28;20109;-80
2021/08/22 05:03:42;;;;;;;2.90;2.60;;;;;;;27.14;48.92;100425.28;4957575;28;20037;-80
2021/08/22 05:06:08;;;;;;;3.33;3.00;;;;;;;27.51;48.15;100419.66;4957074;28;20105;-80
2021/08/22 05:08:34;;;;;;;4.90;3.00;;;;;;;27.91;46.78;100419.56;4960920;28;20038;-79
2021/08/22 05:11:00;;;;;;;4.80;2.90;;;;;;;28.24;46.35;100427.47;4965668;28;20050;-79
2021/08/22 05:13:28;;;;;;;5.35;3.35;;;;;;;28.60;45.38;100426.59;4966079;28;20031;-79
2021/08/22 05:15:54;;;;;;;4.90;3.17;;;;;;;28.99;44.72;100434.59;4961061;28;20027;-80
2021/08/22 05:18:21;;;;;;;3.40;2.63;;;;;;;29.37;43.31;100422.44;4977472;28;20524;-80
2021/08/22 05:20:47;;;;;;;4.90;2.92;;;;;;;29.56;42.63;100423.91;4977397;28;20019;-79
2021/08/22 05:23:13;;;;;;;4.32;2.70;;;;;;;29.74;42.36;100429.53;4960753;28;20118;-80
2021/08/22 05:25:38;;;;;;;3.60;2.78;;;;;;;29.88;42.13;100425.13;4960454;28;20549;-80
2021/08/22 05:28:06;;;;;;;4.03;3.00;;;;;;;30.00;41.87;100432.66;4960194;28;20030;-80
2021/08/22 05:30:32;;;;;;;3.28;2.95;;;;;;;30.35;41.09;100429.13;4960505;28;20138;-79
2021/08/22 05:32:58;;;;;;;3.88;3.25;;;;;;;30.64;40.94;100447.66;4960310;28;20493;-83
2021/08/22 05:35:23;;;;;;;3.20;2.85;;;;;;;30.75;40.44;100442.94;4959977;28;20081;-80
2021/08/22 05:37:49;;;;;;;5.05;2.83;;;;;;;31.05;39.25;100439.97;4960187;28;20398;-81
2021/08/22 05:40:15;;;;;;;3.90;3.47;;;;;;;30.52;40.83;100435.19;4960067;28;20109;-80
2021/08/22 05:42:40;;;;;;;4.07;3.17;;;;;;;31.16;39.71;100440.19;4960106;28;20070;-80
2021/08/22 05:45:06;;;;;;;4.78;3.38;;;;;;;31.33;38.64;100436.78;4959829;28;20027;-80
2021/08/22 05:47:32;;;;;;;5.32;2.92;;;;;;;31.68;38.30;100442.47;4959654;28;20035;-81
2021/08/22 05:49:57;;;;;;;3.53;3.22;;;;;;;31.77;38.13;100436.56;4959682;28;20097;-80
2021/08/22 05:52:23;;;;;;;8.27;3.42;;;;;;;31.89;37.67;100449.03;4959740;28;20038;-81
2021/08/22 05:54:49;;;;;;;4.68;3.08;;;;;;;32.58;37.00;100447.94;4959942;28;20027;-81
2021/08/22 05:57:14;;;;;;;3.80;3.40;;;;;;;32.06;37.46;100438.50;4959481;28;20445;-80
2021/08/22 05:59:40;;;;;;;4.22;3.00;;;;;;;32.09;36.99;100449.00;4959563;28;20042;-81
2021/08/22 06:02:06;;;;;;;4.97;3.70;;;;;;;31.98;37.09;100451.75;4959590;28;20045;-81
2021/08/22 06:04:32;;;;;;;4.93;4.45;;;;;;;31.50;38.31;100446.44;4959524;28;20023;-81
2021/08/22 06:07:01;;;;;;;3.72;3.17;;;;;;;31.39;38.25;100446.28;4959422;28;20070;-80
2021/08/22 06:09:30;;;;;;;4.93;3.60;;;;;;;30.99;39.54;100453.47;4959348;28;20050;-80
2021/08/22 06:12:00;;;;;;;6.28;3.67;;;;;;;30.78;40.37;100453.41;4976843;28;20030;-80
2021/08/22 06:14:25;;;;;;;5.97;3.65;;;;;;;30.28;41.17;100449.63;4959983;28;20348;-80
2021/08/22 06:16:51;;;;;;;7.00;3.80;;;;;;;29.96;42.34;100448.47;4959268;28;20062;-78
2021/08/22 06:19:16;;;;;;;3.72;3.42;;;;;;;30.71;41.24;100450.16;4958509;28;20486;-79
2021/08/22 06:21:42;;;;;;;7.13;3.90;;;;;;;31.18;40.47;100454.84;4959182;28;20031;-80
2021/08/22 06:24:07;;;;;;;6.55;5.30;;;;;;;31.30;40.33;100456.59;4958996;28;20126;-79
2021/08/22 06:26:33;;;;;;;6.65;5.65;;;;;;;31.50;39.70;100457.94;4959428;28;20054;-80
2021/08/22 06:28:58;;;;;;;12.60;7.35;;;;;;;30.82;41.28;100458.16;4959183;28;20520;-80
2021/08/22 06:31:24;;;;;;;13.50;7.28;;;;;;;31.02;40.91;100453.28;4959406;28;20410;-80
2021/08/22 06:33:50;;;;;;;13.98;9.10;;;;;;;30.96;41.65;100454.50;4958735;28;20476;-81
2021/08/22 06:36:15;;;;;;;9.35;6.90;;;;;;;31.06;41.30;100458.03;4975662;28;20034;-80
2021/08/22 06:38:41;;;;;;;6.70;5.50;;;;;;;30.80;41.92;100463.63;4958663;28;20031;-80
2021/08/22 06:41:06;;;;;;;8.60;6.40;;;;;;;31.43;40.63;100469.88;4959090;28;20038;-80
2021/08/22 06:43:32;;;;;;;7.68;5.95;;;;;;;31.60;40.24;100468.00;4958889;28;20544;-80
2021/08/22 06:45:57;;;;;;;9.27;5.68;;;;;;;31.79;40.25;100463.53;4958814;28;20034;-80
2021/08/22 06:48:23;;;;;;;7.68;5.35;;;;;;;31.16;41.13;100468.91;4959017;28;20110;-80
2021/08/22 06:50:49;;;;;;;7.38;4.70;;;;;;;31.57;40.21;100469.00;4958920;28;20034;-80
2021/08/22 06:53:15;;;;;;;6.60;4.70;;;;;;;31.30;41.21;100468.09;4958884;28;20033;-80
2021/08/22 06:55:44;;;;;;;6.45;4.80;;;;;;;31.91;39.69;100460.84;4958237;28;20343;-80
2021/08/22 06:58:09;;;;;;;6.70;5.35;;;;;;;32.27;38.94;100463.06;4958879;28;20026;-79
2021/08/22 07:00:36;;;;;;;6.47;5.63;;;;;;;32.49;38.44;100471.19;4958106;28;20501;-80
2021/08/22 07:03:01;;;;;;;11.05;7.85;;;;;;;31.84;39.44;100464.94;4958142;28;20031;-80
2021/08/22 07:05:27;;;;;;;10.43;7.07;;;;;;;32.24;38.61;100463.31;4958079;28;20043;-80
2021/08/22 07:07:53;;;;;;;10.25;6.68;;;;;;;32.27;38.97;100465.94;4958079;28;20109;-80
2021/08/22 07:10:19;;;;;;;6.55;5.32;;;;;;;32.24;39.14;100461.22;4958009;28;20087;-81
2021/08/22 07:12:44;;;;;;;8.95;5.95;;;;;;;32.54;39.16;100467.53;4957889;28;20031;-81
2021/08/22 07:15:13;;;;;;;8.55;5.80;;;;;;;32.70;38.06;100460.34;4957780;28;20038;-80
2021/08/22 07:17:38;;;;;;;13.32;7.30;;;;;;;32.69;38.35;100464.53;4957650;28;20047;-80
2021/08/22 07:20:06;;;;;;;9.43;7.18;;;;;;;33.10;37.71;100461.50;4957894;28;20466;-80
2021/08/22 07:22:31;;;;;;;11.30;8.18;;;;;;;32.33;39.74;100472.56;4957895;28;20386;-80
2021/08/22 07:24:59;;;;;;;12.52;8.55;;;;;;;32.24;39.63;100469.84;4957590;28;20037;-80
2021/08/22 07:27:25;;;;;;;8.73;7.82;;;;;;;32.78;39.41;100467.25;4957925;28;20121;-81
2021/08/22 07:29:51;;;;;;;10.65;7.72;;;;;;;32.75;39.35;100467.47;4957254;28;20034;-79
2021/08/22 07:32:17;;;;;;;8.57;6.45;;;;;;;32.60;39.55;100473.38;4957330;28;20027;-79
2021/08/22 07:34:43;;;;;;;9.32;6.25;;;;;;;33.26;38.12;100466.59;4957530;28;20031;-79
2021/08/22 07:37:08;;;;;;;7.65;5.85;;;;;;;34.19;36.31;100470.97;4957763;28;20174;-80
2021/08/22 07:39:34;;;;;;;9.52;6.68;;;;;;;32.54;39.85;100464.66;4957703;28;20031;-81
2021/08/22 07:42:00;;;;;;;8.65;6.30;;;;;;;32.11;40.57;100471.50;4957449;28;20050;-80
2021/08/22 07:44:25;;;;;;;11.50;6.75;;;;;;;32.65;39.67;100475.50;4957675;28;20031;-80
2021/08/22 07:46:51;;;;;;;10.07;7.07;;;;;;;33.34;38.41;100467.66;4957631;28;20042;-80
2021/08/22 07:49:19;;;;;;;8.23;6.13;;;;;;;33.76;37.46;100477.63;4957568;28;20147;-81
2021/08/22 07:51:45;;;;;;;8.15;6.43;;;;;;;34.26;36.23;100476.28;4958156;28;20383;-80
2021/08/22 07:54:14;;;;;;;7.95;7.15;;;;;;;33.79;37.31;100470.84;4958085;28;20386;-81
2021/08/22 07:56:44;;;;;;;15.68;8.38;;;;;;;33.74;37.40;100476.59;4957479;28;20031;-81
2021/08/22 07:59:10;;;;;;;9.48;6.82;;;;;;;33.49;37.68;100472.50;4957161;28;20035;-79
2021/08/22 08:01:36;;;;;;;8.38;7.13;;;;;;;33.36;38.43;100475.81;4957068;28;20027;-80
2021/08/22 08:04:02;;;;;;;7.93;6.70;;;;;;;33.76;37.82;100468.97;4974819;28;20111;-81
2021/08/22 08:06:30;;;;;;;9.23;6.70;;;;;;;33.41;38.24;100474.28;4957438;28;20066;-81
2021/08/22 08:08:55;;;;;;;7.53;6.30;;;;;;;33.94;36.75;100478.53;4957496;28;20034;-81
2021/08/22 08:11:21;;;;;;;6.90;6.20;;;;;;;34.70;35.48;100478.47;4957926;28;20109;-80
2021/08/22 08:13:49;;;;;;;6.60;5.65;;;;;;;34.34;35.69;100474.44;4957650;28;20058;-81
2021/08/22 08:16:15;;;;;;;12.68;5.63;;;;;;;34.40;35.44;100475.22;4957260;28;20081;-81
2021/08/22 08:18:40;;;;;;;6.07;4.70;;;;;;;35.17;34.19;100475.84;4956801;28;20023;-81
2021/08/22 08:21:06;;;;;;;8.18;4.80;;;;;;;35.83;32.57;100482.78;4957193;28;20050;-81
2021/08/22 08:23:32;;;;;;;5.20;4.25;;;;;;;35.07;33.52;100475.31;4957310;28;20475;-81
2021/08/22 08:25:57;;;;;;;4.35;3.95;;;;;;;35.75;32.42;100473.09;4957270;28;20512;-80
2021/08/22 08:28:23;;;;;;;4.55;3.55;;;;;;;36.44;30.66;100483.84;4957130;28;20046;-79
2021/08/22 08:30:49;;;;;;;4.75;3.85;;;;;;;36.95;29.46;100481.34;4956855;28;20041;-80
2021/08/22 08:33:15;;;;;;;3.55;3.20;;;;;;;36.05;31.74;100481.13;4957409;28;20038;-82
2021/08/22 08:35:41;;;;;;;3.50;3.20;;;;;;;35.98;31.47;100475.91;4956796;28;20027;-80
2021/08/22 08:38:07;;;;;;;4.32;3.20;;;;;;;34.91;33.00;100470.31;4957381;28;20041;-80
2021/08/22 08:40:34;;;;;;;5.35;3.70;;;;;;;34.82;34.10;100462.69;4956659;28;20042;-81
2021/08/22 08:43:00;;;;;;;5.05;3.33;;;;;;;34.46;35.35;100466.59;4959504;28;20034;-81
2021/08/22 08:45:50;;;;;;;6.20;3.42;;;;;;;35.17;33.75;100467.16;4960779;28;20035;-81
2021/08/22 08:48:23;;;;;;;5.50;3.60;;;;;;;34.98;35.18;100471.91;4960452;28;20029;-80
2021/08/22 08:51:20;;;;;;;3.17;2.88;;;;;;;34.39;36.53;100474.44;4960262;28;20034;-80
2021/08/22 08:54:03;;;;;;;4.10;2.78;;;;;;;34.27;37.46;100464.19;4959229;28;20035;-80
2021/08/22 08:56:48;;;;;;;3.70;3.20;;;;;;;34.94;36.47;100472.16;4960673;28;20027;-81
2021/08/22 08:59:14;;;;;;;2.92;2.58;;;;;;;36.04;34.94;100482.44;4959941;28;20053;-80
2021/08/22 09:01:40;;;;;;;3.50;3.20;;;;;;;36.73;33.29;100482.28;4960756;28;20039;-79
2021/08/22 09:04:13;;;;;;;4.00;2.85;;;;;;;37.05;32.66;100476.00;4960653;28;20370;-80
2021/08/22 09:06:54;;;;;;;7.18;3.22;;;;;;;35.94;35.65;100476.97;4959982;28;20035;-80
2021/08/22 09:09:56;;;;;;;3.55;2.80;;;;;;;34.90;36.97;100469.53;4961036;28;20458;-81
2021/08/22 09:12:51;;;;;;;3.17;2.80;;;;;;;34.49;38.51;100477.13;4960523;28;20073;-80
2021/08/22 09:15:44;;;;;;;6.00;2.92;;;;;;;34.55;38.60;100475.81;4977154;28;20038;-79
2021/08/22 09:18:47;;;;;;;4.57;3.15;;;;;;;35.65;36.79;100468.91;4959970;28;20133;-81
2021/08/22 09:21:32;;;;;;;;;;;;;;;36.21;35.59;100477.34;4960423;28;20129;-79
2021/08/22 09:24:31;;;;;;;3.67;2.97;;;;;;;36.69;35.15;100470.97;4959965;28;20361;-81
2021/08/22 09:27:15;;;;;;;6.15;3.92;;;;;;;36.63;35.22;100473.16;4959826;28;20057;-80
2021/08/22 09:30:09;;;;;;;5.10;3.20;;;;;;;37.65;32.91;100470.88;4960156;28;20030;-81
2021/08/22 09:33:05;;;;;;;8.13;2.90;;;;;;;37.06;33.72;100471.75;4960448;28;20466;-79
2021/08/22 09:36:12;;;;;;;4.82;2.90;;;;;;;36.56;34.72;100467.16;4959393;28;20082;-81
2021/08/22 09:39:15;;;;;;;3.38;3.08;;;;;;;36.52;35.40;100466.66;4863922;29;20089;-80
2021/08/22 09:41:58;;;;;;;3.28;2.97;;;;;;;35.75;36.17;100464.41;4864103;29;20040;-81
2021/08/22 09:44:43;;;;;;;2.47;2.38;;;;;;;36.38;35.05;100459.84;4945479;28;20046;-82
2021/08/22 09:47:14;;;;;;;4.18;2.75;;;;;;;36.63;34.08;100454.97;4959386;28;20034;-82
2021/08/22 09:50:07;;;;;;;4.55;2.97;;;;;;;36.50;34.03;100440.34;4958897;28;20039;-81
2021/08/22 09:52:55;;;;;;;3.78;2.70;;;;;;;36.91;33.04;100451.84;4958927;28;20482;-81
2021/08/22 09:55:40;;;;;;;2.80;2.50;;;;;;;37.23;32.80;100460.75;4976820;28;20049;-82
2021/08/22 09:58:43;;;;;;;2.97;2.78;;;;;;;36.55;33.62;100451.88;4963865;28;20125;-83
2021/08/22 10:01:36;;;;;;;3.75;2.58;;;;;;;36.99;32.64;100447.03;4960068;28;20030;-82
2021/08/22 10:04:26;;;;;;;4.32;2.63;;;;;;;35.87;34.32;100451.44;4959908;28;20490;-81
2021/08/22 10:07:00;;;;;;;4.32;2.60;;;;;;;35.55;33.74;100450.28;4959948;28;20031;-82
2021/08/22 10:09:30;;;;;;;5.28;2.80;;;;;;;34.97;34.87;100444.31;4960136;28;20085;-82
2021/08/22 10:12:04;;;;;;;4.03;2.55;;;;;;;36.36;32.40;100448.81;4959257;28;20092;-82
2021/08/22 10:14:31;;;;;;;3.90;3.47;;;;;;;36.57;32.05;100448.44;4959479;28;20031;-81
2021/08/22 10:16:57;;;;;;;6.50;2.88;;;;;;;36.06;32.92;100447.94;4959270;28;20089;-81
2021/08/22 10:19:29;;;;;;;5.30;2.72;;;;;;;35.79;33.44;100430.16;4959260;28;20030;-81
2021/08/22 10:22:16;;;;;;;;;;;;;;;35.71;32.92;100437.84;4959379;28;20027;-81
2021/08/22 10:24:45;;;;;;;3.50;2.85;;;;;;;36.20;32.16;100441.03;4958641;28;19914;-82
2021/08/22 10:27:34;;;;;;;6.25;2.55;;;;;;;35.95;33.43;100417.72;4958841;28;20042;-82
2021/08/22 10:30:03;;;;;;;5.75;3.85;;;;;;;36.18;32.63;100432.09;4959527;28;20499;-82
2021/08/22 10:32:33;;;;;;;4.85;3.00;;;;;;;35.49;33.37;100423.47;4960475;28;20041;-82
2021/08/22 10:35:11;;;;;;;2.88;2.58;;;;;;;36.59;31.30;100426.28;4960387;28;20023;-81
2021/08/22 10:37:38;;;;;;;4.00;2.67;;;;;;;36.35;32.17;100424.06;4960005;28;20034;-82
2021/08/22 10:40:22;;;;;;;3.10;2.83;;;;;;;36.87;30.74;100426.03;4958835;28;20026;-82
2021/08/22 10:42:49;;;;;;;6.35;2.80;;;;;;;37.31;31.18;100421.13;4959157;28;20035;-82
2021/08/22 10:45:40;;;;;;;3.47;3.17;;;;;;;36.41;31.50;100421.94;4942886;28;20058;-81
2021/08/22 10:48:06;;;;;;;4.65;2.85;;;;;;;36.53;30.93;100416.84;4958360;28;20030;-81
2021/08/22 10:51:02;;;;;;;3.95;2.72;;;;;;;36.42;31.08;100406.13;4958265;28;20089;-82
2021/08/22 10:53:44;;;;;;;5.28;2.67;;;;;;;35.25;33.24;100412.47;4973875;28;20125;-82
2021/08/22 10:56:22;;;;;;;3.30;2.40;;;;;;;35.12;33.59;100410.91;4942899;28;20027;-82
2021/08/22 10:58:59;;;;;;;2.90;2.50;;;;;;;36.02;32.84;100418.50;4958895;28;20037;-81
2021/08/22 11:01:29;;;;;;;3.30;2.72;;;;;;;35.37;33.80;100411.91;4958200;28;20026;-80
2021/08/22 11:04:18;;;;;;;2.60;2.38;;;;;;;35.86;33.07;100409.34;4958022;28;20044;-81
2021/08/22 11:07:06;;;;;;;3.25;2.45;;;;;;;35.13;35.12;100403.81;4958278;28;20041;-82
2021/08/22 11:09:35;;;;;;;2.70;2.50;;;;;;;34.79;35.32;100408.84;4958879;28;20459;-81
2021/08/22 11:12:00;;;;;;;3.15;2.42;;;;;;;35.60;33.57;100406.06;4958306;28;20054;-80
2021/08/22 11:14:26;;;;;;;3.28;2.50;;;;;;;35.65;34.15;100408.94;4957783;28;20501;-80
2021/08/22 11:16:54;;;;;;;3.13;2.53;;;;;;;35.79;32.98;100404.09;4957794;28;20055;-79
2021/08/22 11:19:22;;;;;;;2.53;2.33;;;;;;;36.07;32.96;100406.91;4958534;28;20369;-80
2021/08/22 11:21:49;;;;;;;3.40;2.47;;;;;;;35.73;33.13;100397.56;4957758;28;20069;-82
2021/08/22 11:24:16;;;;;;;2.40;2.20;;;;;;;35.45;33.06;100396.91;4957798;28;20505;-81
2021/08/22 11:26:42;;;;;;;2.90;2.35;;;;;;;34.76;33.96;100397.53;4957749;28;20528;-80
2021/08/22 11:29:07;;;;;;;2.85;2.50;;;;;;;34.04;34.81;100401.94;4957757;28;20026;-81
2021/08/22 11:31:35;;;;;;;2.83;2.60;;;;;;;34.22;35.57;100395.66;4957715;28;20027;-81
2021/08/22 11:34:14;;;;;;;2.78;2.50;;;;;;;33.71;35.93;100405.47;4957722;28;20027;-82
2021/08/22 11:36:41;;;;;;;3.15;2.47;;;;;;;34.23;36.76;100400.13;4958035;28;20054;-81